Home   Weather   Spain   Port de Pollença   Past weeks
Flag for Spain

Past Weather in Port de Pollença, Majorca, Spain — Yesterday and Last 2 Weeks

Currently: 73 °F. Clear. (Weather station: Palma De Mallorca / Son San Juan, Spain). See more current weather

Past Weather in Port de Pollença — Graph

°F

Port de Pollença Temperature Yesterday

Maximum temperature yesterday: 86 °F (at 1:00 pm)
Minimum temperature yesterday: 66 °F (at 5:30 am)
Average temperature yesterday: 78 °F

High & Low Weather Summary for the Past Weeks

 TemperatureHumidityPressure
High90 °F (Jun 12, 1:30 pm)100% (Jun 5, 2:00 am)30.18 "Hg (Jun 5, 2:00 am)
Low59 °F (Jun 7, 5:00 am)35% (May 31, 5:30 pm)29.80 "Hg (Jun 1, 7:00 pm)
Average73 °F72%30.07 "Hg
* Reported May 30 11:00 pm — Jun 14 11:00 pm, Port de Pollença. Weather by CustomWeather, © 2021

Note: Actual official high and low records may vary slightly from our data, if they occured in-between our weather recording intervals... More about our weather records

Port de Pollença Weather History for the Previous 24 Hours

Scroll right to see more
 ConditionsComfort  
Time TempWeatherWind HumidityBarometerVisibility
11:00 pm
Mon, Jun 14
75 °FClear.2 mph65%30.04 "Hg10 mi
10:30 pm77 °FClear.1 mph61%30.04 "Hg10 mi
10:00 pm77 °FClear.1 mph61%30.01 "Hg10 mi
9:30 pm79 °FClear.No wind61%30.01 "Hg10 mi
9:00 pm81 °FPassing clouds.3 mph51%30.01 "HgN/A
8:30 pm82 °FSunny.6 mph51%30.01 "Hg10 mi
8:00 pm82 °FSunny.6 mph51%30.01 "Hg10 mi
7:30 pm82 °FPassing clouds.6 mph51%30.01 "HgN/A
7:00 pm84 °FPassing clouds.7 mph48%30.01 "HgN/A
6:30 pm84 °FSunny.8 mph48%30.04 "Hg10 mi
6:00 pm86 °FPassing clouds.10 mph46%30.04 "HgN/A
5:30 pm86 °FPassing clouds.15 mph49%30.04 "HgN/A
5:00 pm86 °FSunny.16 mph55%30.04 "Hg10 mi
4:30 pm86 °FSunny.12 mph49%30.04 "Hg10 mi
4:00 pm86 °FSunny.10 mph52%30.04 "Hg10 mi
3:30 pm86 °FSunny.9 mph49%30.04 "Hg10 mi
3:00 pm86 °FPassing clouds.10 mph49%30.04 "HgN/A
2:30 pm86 °FPassing clouds.9 mph49%30.07 "HgN/A
2:00 pm86 °FSunny.10 mph46%30.07 "Hg10 mi
1:30 pm86 °FPassing clouds.9 mph49%30.07 "HgN/A
1:00 pm86 °FPassing clouds.8 mph49%30.09 "HgN/A
12:30 pm84 °FSunny.8 mph55%30.09 "Hg10 mi
12:00 pm82 °FPassing clouds.7 mph58%30.09 "HgN/A
11:30 am82 °FPassing clouds.7 mph55%30.09 "HgN/A
11:00 am81 °FPassing clouds.9 mph58%30.09 "HgN/A
10:30 am81 °FPassing clouds.7 mph58%30.09 "HgN/A
10:00 am82 °FSunny.2 mph58%30.09 "Hg10 mi
9:30 am79 °FSunny.1 mph65%30.09 "Hg10 mi
9:00 am77 °FSunny.2 mph69%30.07 "Hg10 mi
8:30 am73 °FSunny.No wind78%30.07 "Hg10 mi
8:00 am72 °FSunny.No wind78%30.07 "Hg10 mi
7:30 am70 °FSunny.No wind83%30.07 "Hg10 mi
7:00 am66 °FSunny.1 mph88%30.04 "Hg10 mi
6:30 am66 °FSunny.2 mph88%30.04 "Hg10 mi
6:00 am66 °FClear.6 mph88%30.04 "Hg10 mi
5:30 am66 °FClear.5 mph88%30.07 "Hg10 mi
5:00 am70 °FPassing clouds.3 mph83%30.07 "HgN/A
4:30 am68 °FClear.1 mph88%30.07 "Hg10 mi
4:00 am68 °FClear.No wind88%30.07 "Hg10 mi
3:30 am70 °FClear.1 mph83%30.07 "Hg10 mi
3:00 am70 °FClear.3 mph78%30.07 "Hg10 mi
2:30 am70 °FClear.5 mph83%30.07 "Hg10 mi
1:30 am72 °FClear.2 mph78%30.07 "Hg10 mi
1:00 am72 °FPassing clouds.3 mph73%30.07 "HgN/A
12:30 am73 °FClear.5 mph74%30.07 "Hg10 mi
12:00 am73 °FClear.5 mph74%30.07 "Hg10 mi
Weather by CustomWeather, © 2021

See weather overview